Time;durP1;ratioP1;P1;durP2;ratioP2;P2;SDS_P1;SDS_P2;PMS_P1;PMS_P2;Temp;Humidity;BMP_temperature;BMP_pressure;BME280_temperature;BME280_humidity;BME280_pressure;Samples;Min_cycle;Max_cycle;Signal;HPM_P1;HPM_P2
2022/03/03 00:00:42;;;;;;;11.77;8.50;;;3.50;56.60;3.20;96604.00;;;;5071888;28;20449;-90
2022/03/03 00:03:09;;;;;;;11.47;8.00;;;3.50;56.50;3.20;96600.00;;;;5072433;28;20470;-89
2022/03/03 00:05:36;;;;;;;10.60;8.20;;;3.50;56.70;3.10;96602.00;;;;5071683;28;20469;-89
2022/03/03 00:08:04;;;;;;;11.70;8.20;;;3.40;56.60;3.10;96595.00;;;;5071486;28;20462;-89
2022/03/03 00:10:32;;;;;;;11.37;8.53;;;3.40;56.60;3.10;96588.00;;;;5071981;28;20446;-89
2022/03/03 00:12:59;;;;;;;11.43;8.13;;;3.40;56.80;3.10;96602.00;;;;5072167;28;20478;-89
2022/03/03 00:15:27;;;;;;;11.47;8.23;;;3.60;56.80;3.10;96596.00;;;;5068010;28;20557;-89
2022/03/03 00:17:54;;;;;;;12.93;8.30;;;3.40;56.90;3.10;96602.00;;;;5072342;28;20988;-89
2022/03/03 00:20:21;;;;;;;10.70;8.07;;;3.40;57.00;3.00;96608.00;;;;5071890;28;20534;-89
2022/03/03 00:22:48;;;;;;;9.97;8.17;;;3.40;57.10;3.00;96590.00;;;;5072201;28;20527;-89
2022/03/03 00:25:17;;;;;;;11.70;8.50;;;3.30;57.20;3.00;96598.00;;;;5060620;28;20474;-90
2022/03/03 00:27:44;;;;;;;11.10;7.87;;;3.30;57.10;2.90;96589.00;;;;5060682;28;20784;-90
2022/03/03 00:30:12;;;;;;;8.43;7.50;;;3.40;57.00;2.90;96601.00;;;;5072303;28;20431;-90
2022/03/03 00:32:41;;;;;;;12.23;8.93;;;3.30;57.00;2.90;96593.00;;;;5071643;28;20540;-90
2022/03/03 00:35:10;;;;;;;9.97;7.60;;;3.80;57.20;2.90;96597.00;;;;5071837;28;20815;-90
2022/03/03 00:37:37;;;;;;;12.70;7.87;;;3.20;57.00;2.90;96599.00;;;;5072522;28;20938;-90
2022/03/03 00:40:06;;;;;;;10.77;8.07;;;3.20;57.10;2.90;96589.00;;;;5071334;28;20438;-89
2022/03/03 00:42:34;;;;;;;11.17;8.10;;;3.20;57.20;2.80;96589.00;;;;5068673;28;20531;-90
2022/03/03 00:45:01;;;;;;;10.90;8.33;;;3.20;57.10;2.80;96583.00;;;;5070983;28;20537;-90
2022/03/03 00:47:28;;;;;;;11.27;8.03;;;3.20;57.10;2.80;96584.00;;;;5072368;28;20478;-90
2022/03/03 00:49:56;;;;;;;9.87;7.60;;;3.10;56.90;2.80;96588.00;;;;5072235;28;20521;-90
2022/03/03 00:52:23;;;;;;;9.57;7.87;;;3.10;57.40;2.70;96585.00;;;;5071568;28;20465;-90
2022/03/03 00:54:50;;;;;;;10.30;7.47;;;3.10;57.30;2.70;96581.00;;;;5071397;28;20537;-90
2022/03/03 00:57:18;;;;;;;12.10;8.60;;;3.70;57.10;2.70;96586.00;;;;5071892;28;21062;-90
2022/03/03 00:59:45;;;;;;;9.93;7.97;;;3.00;56.70;2.60;96573.00;;;;5071908;28;20474;-89
2022/03/03 01:02:12;;;;;;;10.47;7.97;;;3.00;56.70;2.60;96581.00;;;;5070570;28;20474;-90
2022/03/03 01:04:39;;;;;;;12.23;8.57;;;3.30;56.90;2.50;96572.00;;;;5070879;28;20519;-90
2022/03/03 01:07:08;;;;;;;9.00;7.60;;;2.90;56.70;2.50;96574.00;;;;5070899;28;20867;-89
2022/03/03 01:09:35;;;;;;;10.13;7.80;;;2.80;56.80;2.50;96574.00;;;;5074402;28;20469;-90
2022/03/03 01:12:02;;;;;;;10.60;7.97;;;2.80;56.90;2.40;96567.00;;;;5075482;28;20466;-90
2022/03/03 01:14:29;;;;;;;11.87;8.20;;;2.80;56.80;2.40;96560.00;;;;5075303;28;20458;-90
2022/03/03 01:16:57;;;;;;;9.80;7.93;;;2.70;56.80;2.40;96552.00;;;;5061714;28;20576;-90
2022/03/03 01:19:24;;;;;;;9.30;7.70;;;2.70;57.40;2.30;96544.00;;;;5074415;28;20552;-89
2022/03/03 01:21:51;;;;;;;10.10;7.87;;;2.70;56.90;2.20;96530.00;;;;5075170;28;20805;-90
2022/03/03 01:24:23;;;;;;;10.90;8.07;;;2.60;56.90;2.20;96541.00;;;;5073374;28;20462;-90
2022/03/03 01:26:53;;;;;;;11.00;7.87;;;2.60;57.00;2.20;96542.00;;;;5074418;28;20879;-90
2022/03/03 01:29:21;;;;;;;10.93;8.03;;;2.50;57.10;2.20;96544.00;;;;5075275;28;20438;-90
2022/03/03 01:31:48;;;;;;;10.97;8.53;;;2.50;57.20;2.10;96541.00;;;;5073738;28;20484;-90
2022/03/03 01:34:15;;;;;;;9.80;7.83;;;2.50;57.30;2.10;96556.00;;;;5074980;28;21045;-90
2022/03/03 01:36:43;;;;;;;10.57;7.90;;;2.40;57.50;2.10;96541.00;;;;5074536;28;20922;-90
2022/03/03 01:39:11;;;;;;;9.83;8.00;;;2.90;57.80;2.10;96554.00;;;;5072928;28;20530;-90
2022/03/03 01:41:40;;;;;;;10.20;7.90;;;2.40;57.60;2.10;96562.00;;;;5073593;28;20513;-89
2022/03/03 01:44:12;;;;;;;14.37;8.40;;;2.50;57.40;2.10;96555.00;;;;5074089;28;20462;-90
2022/03/03 01:46:53;;;;;;;11.90;8.33;;;2.40;57.40;2.00;96559.00;;;;5074199;28;20438;-90
2022/03/03 01:49:25;;;;;;;10.77;8.23;;;2.40;57.50;2.00;96560.00;;;;5073576;28;20939;-89
2022/03/03 01:51:55;;;;;;;10.03;8.37;;;2.30;57.20;1.90;96554.00;;;;5074825;28;20488;-89
2022/03/03 01:54:31;;;;;;;10.70;8.20;;;2.30;57.30;1.90;96547.00;;;;5061026;28;20454;-90
2022/03/03 01:57:00;;;;;;;10.87;7.70;;;2.30;57.20;1.90;96551.00;;;;5073637;28;20496;-90
2022/03/03 01:59:28;;;;;;;11.40;8.20;;;2.30;57.30;1.90;96551.00;;;;5074079;28;20522;-89
2022/03/03 02:01:56;;;;;;;11.53;8.20;;;2.30;57.30;1.90;96544.00;;;;5074102;28;20439;-89
2022/03/03 02:04:23;;;;;;;11.17;8.53;;;2.20;57.30;1.90;96538.00;;;;5074048;28;20456;-88
2022/03/03 02:06:50;;;;;;;9.87;7.90;;;2.20;57.40;1.80;96542.00;;;;5074438;28;20541;-89
2022/03/03 02:09:18;;;;;;;11.57;8.30;;;2.20;57.60;1.80;96534.00;;;;5074281;28;20954;-88
2022/03/03 02:11:46;;;;;;;10.97;8.67;;;2.20;57.50;1.80;96539.00;;;;5073645;28;20445;-88
2022/03/03 02:14:15;;;;;;;12.03;7.80;;;2.10;57.50;1.70;96537.00;;;;5073799;28;20458;-89
2022/03/03 02:16:43;;;;;;;11.07;8.10;;;2.10;57.40;1.70;96529.00;;;;5068509;28;21045;-89
2022/03/03 02:19:17;;;;;;;12.33;8.23;;;2.10;57.30;1.70;96534.00;;;;5065291;28;20495;-89
2022/03/03 02:21:47;;;;;;;11.10;8.10;;;2.10;57.40;1.70;96531.00;;;;5074651;28;20454;-88
2022/03/03 02:24:14;;;;;;;12.40;9.20;;;2.00;57.60;1.60;96525.00;;;;5055202;28;20466;-89
2022/03/03 02:26:42;;;;;;;10.27;7.57;;;2.00;57.80;1.60;96521.00;;;;5065425;28;20442;-89
2022/03/03 02:29:10;;;;;;;11.43;7.83;;;2.00;58.10;1.60;96524.00;;;;5074861;28;20470;-89
2022/03/03 02:31:37;;;;;;;12.17;8.17;;;2.10;58.10;1.60;96516.00;;;;5074467;28;20453;-89
2022/03/03 02:34:04;;;;;;;8.70;7.47;;;2.00;58.00;1.60;96516.00;;;;5073567;28;20494;-89
2022/03/03 02:36:31;;;;;;;13.60;8.07;;;2.00;58.10;1.60;96521.00;;;;5073732;28;21018;-88
2022/03/03 02:39:04;;;;;;;11.10;7.70;;;2.00;58.10;1.60;96509.00;;;;5074188;28;20427;-88
2022/03/03 02:41:33;;;;;;;9.60;7.50;;;2.00;58.60;1.60;96515.00;;;;5072448;28;20450;-88
2022/03/03 02:44:02;;;;;;;10.40;7.83;;;2.00;57.90;1.60;96509.00;;;;5074200;28;21001;-88
2022/03/03 02:46:29;;;;;;;9.77;7.50;;;1.90;58.40;1.50;96505.00;;;;5073004;28;21015;-88
2022/03/03 02:48:56;;;;;;;9.33;7.50;;;1.90;57.80;1.50;96505.00;;;;5072819;28;20500;-88
2022/03/03 02:51:24;;;;;;;10.17;7.57;;;1.90;57.80;1.50;96509.00;;;;5073319;28;20533;-89
2022/03/03 02:53:51;;;;;;;8.27;7.40;;;1.90;57.70;1.50;96510.00;;;;5073332;28;20870;-88
2022/03/03 02:56:20;;;;;;;10.97;7.33;;;1.90;57.70;1.50;96515.00;;;;5073263;28;20470;-88
2022/03/03 02:58:48;;;;;;;10.13;7.57;;;1.90;57.80;1.50;96515.00;;;;5073998;28;20442;-88
2022/03/03 03:01:15;;;;;;;12.30;8.43;;;1.80;57.80;1.40;96521.00;;;;5073820;28;20442;-89
2022/03/03 03:03:42;;;;;;;11.43;8.00;;;1.80;58.10;1.40;96520.00;;;;5069119;28;20528;-89
2022/03/03 03:06:14;;;;;;;9.77;8.20;;;1.80;58.20;1.40;96508.00;;;;5066118;28;20929;-88
2022/03/03 03:11:10;;;;;;;9.60;7.77;;;1.80;58.20;1.40;96511.00;;;;5034283;28;20460;-80
2022/03/03 03:13:40;;;;;;;8.73;7.43;;;1.80;58.30;1.30;96511.00;;;;5029939;28;20880;-80
2022/03/03 03:16:08;;;;;;;10.43;7.63;;;1.70;58.10;1.30;96508.00;;;;5022837;28;20489;-80
2022/03/03 03:18:35;;;;;;;17.00;7.93;;;1.70;58.00;1.30;96504.00;;;;5028582;28;20447;-80
2022/03/03 03:21:03;;;;;;;10.30;7.90;;;1.70;57.90;1.20;96507.00;;;;5026575;28;20451;-80
2022/03/03 03:23:30;;;;;;;12.10;8.17;;;1.70;58.00;1.20;96504.00;;;;5020480;28;20473;-80
2022/03/03 03:25:57;;;;;;;11.43;7.63;;;1.70;58.50;1.20;96502.00;;;;5016492;28;20870;-80
2022/03/03 03:28:24;;;;;;;9.67;7.90;;;1.60;58.00;1.20;96493.00;;;;5030263;28;20498;-81
2022/03/03 03:30:53;;;;;;;12.37;9.00;;;1.60;57.90;1.10;96485.00;;;;5033204;28;20463;-80
2022/03/03 03:33:20;;;;;;;8.93;7.37;;;1.60;58.00;1.10;96480.00;;;;5028373;28;20460;-80
2022/03/03 03:35:48;;;;;;;9.40;7.67;;;1.50;57.90;1.10;96477.00;;;;5016886;28;20817;-80
2022/03/03 03:38:15;;;;;;;11.40;7.50;;;1.50;57.90;1.10;96471.00;;;;5017551;28;20556;-80
2022/03/03 03:40:42;;;;;;;10.00;7.97;;;1.50;58.00;1.10;96469.00;;;;5016674;28;20480;-80
2022/03/03 03:43:09;;;;;;;11.37;7.87;;;1.50;58.00;1.00;96466.00;;;;5026543;28;20551;-80
2022/03/03 03:45:36;;;;;;;10.73;8.27;;;1.40;58.00;1.00;96463.00;;;;5019319;28;20449;-80
2022/03/03 03:48:05;;;;;;;9.73;7.90;;;1.40;58.00;0.90;96464.00;;;;5029593;28;20441;-80
2022/03/03 03:50:33;;;;;;;9.07;7.33;;;1.40;58.00;0.90;96468.00;;;;5017352;28;20948;-81
2022/03/03 03:53:00;;;;;;;11.07;8.43;;;1.30;58.30;0.90;96476.00;;;;5034651;28;20464;-81
2022/03/03 03:55:28;;;;;;;10.30;7.97;;;1.30;58.30;0.90;96484.00;;;;5026322;28;20845;-80
2022/03/03 03:57:55;;;;;;;11.10;7.87;;;1.30;59.00;0.90;96475.00;;;;5026903;28;20862;-80
2022/03/03 04:00:22;;;;;;;13.27;8.10;;;1.30;58.40;0.90;96471.00;;;;5026655;28;21216;-81
2022/03/03 04:02:49;;;;;;;11.13;7.57;;;1.30;58.50;0.80;96470.00;;;;5036661;28;20899;-81
2022/03/03 04:05:18;;;;;;;13.20;8.70;;;1.30;58.40;0.80;96461.00;;;;5033121;28;20512;-80
2022/03/03 04:07:45;;;;;;;10.50;8.07;;;1.20;58.40;0.80;96461.00;;;;5021542;28;20472;-80
2022/03/03 04:10:12;;;;;;;9.77;7.93;;;1.20;58.40;0.80;96462.00;;;;5034473;28;20448;-81
2022/03/03 04:12:40;;;;;;;9.93;7.87;;;1.20;58.40;0.70;96454.00;;;;5026132;28;20460;-81
2022/03/03 04:15:09;;;;;;;8.90;7.67;;;1.20;58.40;0.70;96460.00;;;;5036021;28;20447;-81
2022/03/03 04:17:37;;;;;;;10.63;7.53;;;1.20;58.30;0.70;96466.00;;;;5031982;28;20480;-81
2022/03/03 04:20:05;;;;;;;10.60;8.57;;;1.10;58.30;0.70;96470.00;;;;5030788;28;20474;-81
2022/03/03 04:22:34;;;;;;;12.63;8.50;;;1.10;58.60;0.70;96468.00;;;;5035958;28;20480;-81
2022/03/03 04:25:02;;;;;;;10.17;8.00;;;1.10;58.90;0.70;96466.00;;;;5032915;28;20469;-80
2022/03/03 04:27:29;;;;;;;11.43;8.43;;;1.10;58.90;0.70;96467.00;;;;5019889;28;20900;-80
2022/03/03 04:29:56;;;;;;;11.40;8.23;;;1.10;59.50;0.70;96468.00;;;;5028084;28;20441;-80
2022/03/03 04:32:23;;;;;;;13.60;8.60;;;1.10;58.90;0.60;96454.00;;;;5029693;28;20465;-81
2022/03/03 04:34:51;;;;;;;12.10;8.23;;;1.10;58.70;0.60;96460.00;;;;5024263;28;20456;-80
2022/03/03 04:37:18;;;;;;;10.27;8.00;;;1.00;58.60;0.60;96448.00;;;;5036194;28;20475;-81
2022/03/03 04:39:46;;;;;;;11.27;8.30;;;1.00;58.50;0.60;96444.00;;;;5035575;28;20462;-80
2022/03/03 04:42:14;;;;;;;13.50;7.63;;;1.00;58.60;0.60;96450.00;;;;5028506;28;20476;-80
2022/03/03 04:44:41;;;;;;;11.57;7.67;;;1.00;58.60;0.60;96441.00;;;;5039906;28;20491;-80
2022/03/03 04:47:08;;;;;;;11.03;8.13;;;1.00;58.60;0.50;96438.00;;;;5039670;28;20436;-81
2022/03/03 04:49:39;;;;;;;13.77;7.83;;;1.00;58.70;0.50;96430.00;;;;5025436;28;20448;-80
2022/03/03 04:52:07;;;;;;;10.40;7.77;;;0.90;58.60;0.50;96427.00;;;;5031008;28;20453;-80
2022/03/03 04:54:34;;;;;;;10.30;8.03;;;0.90;58.60;0.50;96430.00;;;;5024841;28;20995;-80
2022/03/03 04:57:03;;;;;;;10.80;8.57;;;0.90;58.70;0.50;96427.00;;;;5040032;28;20571;-80
2022/03/03 04:59:31;;;;;;;9.77;7.53;;;0.90;58.80;0.40;96425.00;;;;5019938;28;20448;-80
2022/03/03 05:01:58;;;;;;;9.87;7.60;;;0.90;58.80;0.40;96411.00;;;;5020736;28;20508;-80
2022/03/03 05:04:25;;;;;;;11.90;8.20;;;0.80;58.80;0.40;96416.00;;;;5020183;28;20540;-80
2022/03/03 05:06:52;;;;;;;11.90;7.67;;;0.80;58.90;0.40;96419.00;;;;5028005;28;20478;-80
2022/03/03 05:09:19;;;;;;;11.57;8.47;;;0.80;58.90;0.40;96407.00;;;;5020710;28;20471;-81
2022/03/03 05:11:46;;;;;;;11.77;8.40;;;0.80;58.90;0.40;96407.00;;;;5028332;28;21002;-81
2022/03/03 05:14:15;;;;;;;9.63;8.23;;;0.80;58.90;0.40;96409.00;;;;5038859;28;20455;-80
2022/03/03 05:16:42;;;;;;;10.50;7.77;;;0.80;58.90;0.40;96407.00;;;;5038855;28;20443;-81
2022/03/03 05:19:10;;;;;;;12.50;8.10;;;0.80;58.90;0.30;96410.00;;;;5023534;28;20444;-81
2022/03/03 05:21:37;;;;;;;10.93;8.27;;;0.80;58.90;0.30;96399.00;;;;5033970;28;20468;-80
2022/03/03 05:24:05;;;;;;;9.50;7.87;;;0.80;58.90;0.30;96407.00;;;;5021715;28;20460;-80
2022/03/03 05:26:32;;;;;;;10.80;8.23;;;0.70;58.90;0.30;96395.00;;;;5020042;28;20532;-81
2022/03/03 05:29:02;;;;;;;13.93;8.43;;;0.70;58.90;0.30;96399.00;;;;5032983;28;20443;-81
2022/03/03 05:31:31;;;;;;;10.33;7.67;;;0.70;58.90;0.20;96398.00;;;;5022216;28;20539;-81
2022/03/03 05:33:58;;;;;;;11.60;8.20;;;0.70;58.90;0.20;96392.00;;;;5037657;28;20549;-81
2022/03/03 05:36:27;;;;;;;10.53;7.77;;;0.60;58.80;0.20;96397.00;;;;5038466;28;20436;-81
2022/03/03 05:38:57;;;;;;;13.03;8.37;;;0.70;58.90;0.20;96389.00;;;;5038421;28;20510;-82
2022/03/03 05:41:25;;;;;;;12.50;8.70;;;0.60;58.90;0.20;96389.00;;;;5035437;28;20937;-81
2022/03/03 05:44:14;;;;;;;14.23;8.77;;;0.60;59.00;0.20;96390.00;;;;5038659;28;20460;-81
2022/03/03 05:46:50;;;;;;;10.60;8.43;;;0.60;59.00;0.20;96397.00;;;;5035702;28;20465;-87
2022/03/03 05:49:19;;;;;;;12.73;7.87;;;0.60;58.90;0.20;96388.00;;;;5014635;28;20436;-86
2022/03/03 05:51:46;;;;;;;11.37;8.30;;;0.60;58.90;0.20;96391.00;;;;5018625;28;21004;-87
2022/03/03 05:54:13;;;;;;;13.03;8.97;;;0.60;59.00;0.30;96392.00;;;;5032526;28;20463;-87
2022/03/03 05:56:52;;;;;;;10.87;8.47;;;0.60;59.00;0.30;96388.00;;;;5026526;28;20444;-88
2022/03/03 05:59:24;;;;;;;10.80;8.23;;;0.60;59.10;0.30;96386.00;;;;5016731;28;20464;-89
2022/03/03 06:02:00;;;;;;;12.97;8.37;;;0.60;59.70;0.30;96394.00;;;;5024808;28;20486;-87
2022/03/03 06:04:31;;;;;;;12.93;8.93;;;0.60;59.10;0.30;96386.00;;;;5015324;28;20464;-88
2022/03/03 06:07:09;;;;;;;11.37;8.77;;;0.60;59.10;0.30;96389.00;;;;5020622;28;20432;-89
2022/03/03 06:09:44;;;;;;;11.00;8.70;;;0.60;59.10;0.30;96391.00;;;;5018353;28;20827;-86
2022/03/03 06:12:29;;;;;;;13.07;8.80;;;0.60;59.70;0.40;96399.00;;;;5022764;28;20874;-86
2022/03/03 06:15:06;;;;;;;13.47;10.43;;;0.60;59.30;0.40;96402.00;;;;5014728;28;20528;-87
2022/03/03 06:17:36;;;;;;;15.10;10.87;;;0.60;59.20;0.40;96402.00;;;;5014608;28;20660;-88
2022/03/03 06:20:10;;;;;;;16.00;11.33;;;0.60;59.20;0.40;96390.00;;;;5016939;28;21082;-88
2022/03/03 06:22:38;;;;;;;14.90;10.63;;;0.60;59.30;0.40;96392.00;;;;5033840;28;20447;-88
2022/03/03 06:25:13;;;;;;;13.27;10.77;;;0.60;59.40;0.50;96388.00;;;;5035602;28;20444;-89
2022/03/03 06:27:43;;;;;;;14.57;9.87;;;0.70;59.60;0.50;96392.00;;;;5030649;28;20805;-88
2022/03/03 06:30:11;;;;;;;13.77;10.07;;;0.70;59.60;0.50;96390.00;;;;5015170;28;20441;-88
2022/03/03 06:32:44;;;;;;;14.37;10.77;;;0.70;59.60;0.60;96382.00;;;;5027045;28;20826;-89
2022/03/03 06:35:15;;;;;;;15.77;10.30;;;0.70;59.60;0.60;96373.00;;;;5031741;28;20798;-88
2022/03/03 06:37:45;;;;;;;14.60;10.17;;;0.70;59.60;0.60;96369.00;;;;5035670;28;20525;-88
2022/03/03 06:40:13;;;;;;;15.30;10.67;;;0.80;59.70;0.60;96362.00;;;;5020833;28;20445;-88
2022/03/03 06:42:40;;;;;;;14.33;10.83;;;0.80;59.70;0.60;96366.00;;;;5018316;28;20536;-90
2022/03/03 06:45:09;;;;;;;16.13;11.03;;;0.80;59.80;0.70;96370.00;;;;5027982;28;20857;-90
2022/03/03 06:47:36;;;;;;;13.93;9.90;;;0.80;59.90;0.70;96368.00;;;;5027108;28;20546;-91
2022/03/03 06:50:06;;;;;;;15.87;11.17;;;0.90;60.00;0.80;96356.00;;;;5017596;28;20532;-90
2022/03/03 06:52:50;;;;;;;13.80;10.30;;;0.90;60.20;0.90;96342.00;;;;5029103;28;20476;-88
2022/03/03 06:55:22;;;;;;;16.33;10.63;;;1.00;60.30;0.90;96344.00;;;;5021065;28;20499;-90
2022/03/03 06:57:53;;;;;;;17.30;11.00;;;1.00;60.30;0.90;96330.00;;;;5023708;28;21029;-90
2022/03/03 07:00:22;;;;;;;17.87;11.50;;;1.00;60.70;1.00;96347.00;;;;5030286;28;20444;-91
2022/03/03 07:02:52;;;;;;;14.17;11.57;;;1.10;60.40;1.00;96359.00;;;;5019598;28;20468;-90
2022/03/03 07:05:22;;;;;;;17.00;11.77;;;1.10;60.80;1.10;96359.00;;;;5016690;28;20432;-89
2022/03/03 07:07:52;;;;;;;16.77;11.17;;;1.20;61.00;1.20;96356.00;;;;5030494;28;20467;-89
2022/03/03 07:10:23;;;;;;;18.10;11.93;;;1.20;60.90;1.30;96347.00;;;;5034975;28;20795;-89
2022/03/03 07:12:53;;;;;;;14.57;10.70;;;1.30;61.00;1.30;96349.00;;;;5034391;28;20518;-90
2022/03/03 07:15:21;;;;;;;14.27;10.80;;;1.40;61.10;1.40;96365.00;;;;5026813;28;20452;-87
2022/03/03 07:17:53;;;;;;;15.93;11.00;;;1.40;62.00;1.50;96366.00;;;;5037958;28;21253;-88
2022/03/03 07:20:44;;;;;;;17.57;11.57;;;1.50;61.40;1.60;96372.00;;;;5038710;28;20448;-87
2022/03/03 07:23:30;;;;;;;17.70;11.23;;;1.60;61.60;1.70;96390.00;;;;5054766;28;20538;-88
2022/03/03 07:26:01;;;;;;;15.93;11.13;;;1.70;61.80;1.80;96387.00;;;;5025411;28;20535;-88
2022/03/03 07:28:34;;;;;;;17.90;10.87;;;1.80;61.70;1.90;96405.00;;;;5027345;28;20535;-89
2022/03/03 07:31:08;;;;;;;16.30;10.10;;;1.80;61.80;2.00;96404.00;;;;5033850;28;20447;-88
2022/03/03 07:33:50;;;;;;;15.87;9.20;;;1.90;61.60;2.10;96414.00;;;;5025087;28;20468;-88
2022/03/03 07:36:26;;;;;;;13.80;10.27;;;2.00;62.30;2.20;96408.00;;;;5006130;28;20440;-87
2022/03/03 07:39:01;;;;;;;14.03;10.33;;;2.20;62.60;2.30;96406.00;;;;5021637;28;20504;-84
2022/03/03 07:41:33;;;;;;;13.83;9.93;;;2.30;62.80;2.40;96403.00;;;;5021793;28;20440;-84
2022/03/03 07:44:12;;;;;;;17.07;11.17;;;2.40;62.70;2.50;96398.00;;;;5014705;28;20457;-84
2022/03/03 07:46:39;;;;;;;16.50;10.60;;;2.50;63.00;2.60;96405.00;;;;5029765;28;20970;-85
2022/03/03 07:49:08;;;;;;;13.20;10.07;;;2.60;62.80;2.70;96399.00;;;;5025164;28;20550;-85
2022/03/03 07:51:48;;;;;;;14.10;10.73;;;2.70;62.90;2.90;96401.00;;;;5024520;28;20453;-86
2022/03/03 07:54:17;;;;;;;15.13;10.27;;;2.80;63.00;3.00;96392.00;;;;5024133;28;20535;-85
2022/03/03 07:56:49;;;;;;;12.83;9.83;;;2.90;62.90;3.10;96392.00;;;;5021368;28;20456;-86
2022/03/03 07:59:21;;;;;;;16.20;10.97;;;3.00;63.00;3.20;96390.00;;;;5020942;28;20765;-85
2022/03/03 08:01:50;;;;;;;13.80;10.33;;;3.10;62.90;3.30;96391.00;;;;5018913;28;20432;-84
2022/03/03 08:04:18;;;;;;;14.47;10.57;;;3.20;62.90;3.50;96383.00;;;;5018959;28;20495;-84
2022/03/03 08:06:48;;;;;;;15.20;10.07;;;3.30;62.60;3.70;96381.00;;;;5026638;28;20500;-85
2022/03/03 08:09:18;;;;;;;13.43;10.70;;;3.50;62.80;3.80;96390.00;;;;5007118;28;20897;-84
2022/03/03 08:11:50;;;;;;;14.03;10.83;;;3.60;62.90;4.00;96401.00;;;;5019733;28;20818;-85
2022/03/03 08:14:20;;;;;;;13.33;10.57;;;3.70;63.00;4.20;96394.00;;;;5021834;28;20456;-86
2022/03/03 08:16:48;;;;;;;13.20;10.50;;;3.90;63.10;4.40;96386.00;;;;5028244;28;20306;-87
2022/03/03 08:19:17;;;;;;;14.50;10.87;;;4.10;63.10;4.60;96395.00;;;;5023050;28;20284;-85
2022/03/03 08:21:47;;;;;;;15.93;10.80;;;4.20;62.90;4.80;96400.00;;;;5022061;28;20189;-85
2022/03/03 08:24:14;;;;;;;14.47;10.47;;;4.40;63.00;5.00;96398.00;;;;5031526;28;20658;-84
2022/03/03 08:26:43;;;;;;;15.97;11.53;;;4.60;62.80;5.30;96383.00;;;;5026097;28;20709;-87
2022/03/03 08:29:12;;;;;;;12.40;10.10;;;4.80;62.80;5.50;96382.00;;;;5028113;28;20280;-86
2022/03/03 08:31:42;;;;;;;13.47;10.10;;;5.00;62.50;5.70;96383.00;;;;5032376;28;20205;-87
2022/03/03 08:34:23;;;;;;;12.07;10.10;;;5.20;62.40;6.00;96379.00;;;;5032478;28;20244;-87
2022/03/03 08:36:54;;;;;;;16.00;10.80;;;5.40;62.20;6.20;96384.00;;;;5028566;28;20210;-88
2022/03/03 08:39:28;;;;;;;14.70;10.53;;;5.60;62.00;6.50;96383.00;;;;5024170;28;20233;-89
2022/03/03 08:41:59;;;;;;;12.47;9.63;;;5.80;61.70;6.70;96385.00;;;;5017643;28;20193;-89
2022/03/03 08:44:33;;;;;;;12.73;9.50;;;6.30;61.40;7.00;96388.00;;;;5017352;28;20749;-87
2022/03/03 08:47:02;;;;;;;12.33;10.13;;;6.70;61.20;7.30;96393.00;;;;5017251;28;20201;-88
2022/03/03 08:49:33;;;;;;;13.20;9.63;;;7.00;60.90;7.50;96400.00;;;;5034062;28;20267;-88
2022/03/03 08:52:05;;;;;;;12.60;10.27;;;6.80;60.40;7.80;96400.00;;;;5012918;28;20186;-87
2022/03/03 08:54:32;;;;;;;12.53;9.90;;;7.00;60.00;8.10;96401.00;;;;5012358;28;20272;-88
2022/03/03 08:57:00;;;;;;;13.30;9.37;;;7.30;59.90;8.30;96407.00;;;;5027849;28;20650;-88
2022/03/03 08:59:27;;;;;;;12.47;9.07;;;7.50;59.60;8.60;96396.00;;;;5031682;28;20275;-90
2022/03/03 09:01:56;;;;;;;12.03;8.87;;;7.70;59.40;8.80;96407.00;;;;5025506;28;20225;-88
2022/03/03 09:04:24;;;;;;;14.53;9.93;;;7.90;59.20;9.20;96405.00;;;;5012331;28;20681;-88
2022/03/03 09:09:29;;;;;;;12.73;8.37;;;8.40;59.00;9.80;96403.00;;;;5025594;28;20205;-88
2022/03/03 09:11:56;;;;;;;11.07;8.53;;;8.80;58.70;10.10;96415.00;;;;5030070;28;20607;-86
2022/03/03 09:14:23;;;;;;;16.10;9.67;;;9.10;58.40;10.40;96414.00;;;;5029101;28;20197;-89
2022/03/03 09:16:50;;;;;;;10.70;8.70;;;9.50;57.90;10.70;96416.00;;;;5031578;28;20548;-87
2022/03/03 09:19:17;;;;;;;10.33;8.23;;;10.70;58.50;11.00;96422.00;;;;5030397;28;20221;-88
2022/03/03 09:21:46;;;;;;;10.97;9.03;;;10.60;58.10;11.30;96416.00;;;;5028788;28;20193;-89
2022/03/03 09:24:13;;;;;;;9.73;7.80;;;11.10;57.90;11.50;96417.00;;;;5039173;28;20663;-89
2022/03/03 09:26:42;;;;;;;10.37;8.23;;;11.70;57.40;11.90;96422.00;;;;5029935;28;20194;-88
2022/03/03 09:29:09;;;;;;;8.43;7.00;;;12.30;56.70;12.10;96413.00;;;;5032668;28;20247;-88
2022/03/03 09:31:36;;;;;;;8.07;7.27;;;12.90;55.90;12.50;96432.00;;;;5030511;28;20205;-88
2022/03/03 09:34:03;;;;;;;9.73;7.50;;;13.50;55.00;12.80;96430.00;;;;5034633;28;20198;-86
2022/03/03 09:36:30;;;;;;;8.10;6.20;;;14.00;53.70;13.00;96434.00;;;;5044149;28;20186;-87
2022/03/03 09:38:57;;;;;;;7.90;6.43;;;14.50;51.70;13.20;96433.00;;;;5032308;28;20229;-87
2022/03/03 09:41:24;;;;;;;6.97;6.27;;;14.90;51.30;13.40;96431.00;;;;5034265;28;20198;-86
2022/03/03 09:43:53;;;;;;;8.53;6.30;;;15.30;50.60;13.70;96430.00;;;;5033875;28;20678;-85
2022/03/03 09:46:22;;;;;;;10.20;7.17;;;15.60;49.90;13.90;96424.00;;;;5033769;28;20221;-86
2022/03/03 09:48:50;;;;;;;14.00;7.67;;;15.90;48.40;14.10;96419.00;;;;5041424;28;20255;-84
2022/03/03 09:51:17;;;;;;;8.93;6.63;;;16.10;47.60;14.30;96421.00;;;;5031786;28;20613;-86
2022/03/03 09:53:49;;;;;;;9.87;7.00;;;16.20;46.60;14.40;96416.00;;;;5045977;28;20291;-84
2022/03/03 09:56:17;;;;;;;10.40;7.10;;;16.30;46.10;14.60;96414.00;;;;5031416;28;20198;-86
2022/03/03 09:58:44;;;;;;;9.00;6.93;;;16.30;45.40;14.70;96416.00;;;;5034347;28;20225;-85
2022/03/03 10:01:13;;;;;;;8.63;6.80;;;16.30;44.30;14.70;96415.00;;;;5032871;28;20578;-85
2022/03/03 10:03:41;;;;;;;9.03;7.27;;;16.20;44.10;14.70;96418.00;;;;5034578;28;20280;-84
2022/03/03 10:06:12;;;;;;;9.97;7.73;;;16.10;43.90;14.80;96415.00;;;;5032907;28;20276;-85
2022/03/03 10:08:41;;;;;;;8.20;6.30;;;16.00;43.90;14.80;96403.00;;;;5019052;28;20226;-85
2022/03/03 10:11:09;;;;;;;8.33;6.80;;;15.90;44.40;14.90;96402.00;;;;5033997;28;20192;-85
2022/03/03 10:13:48;;;;;;;8.10;6.77;;;16.00;44.10;14.90;96393.00;;;;5031324;28;20212;-86
2022/03/03 10:16:24;;;;;;;9.03;7.07;;;16.10;44.00;15.00;96394.00;;;;5031099;28;20190;-85
2022/03/03 10:18:59;;;;;;;8.40;7.43;;;16.20;44.20;15.10;96396.00;;;;5034458;28;20217;-85
2022/03/03 10:21:28;;;;;;;9.13;6.93;;;16.30;44.60;15.10;96400.00;;;;5032621;28;20185;-84
2022/03/03 10:23:56;;;;;;;7.57;6.30;;;16.50;44.10;15.20;96395.00;;;;5038499;28;20193;-85
2022/03/03 10:26:38;;;;;;;7.93;6.30;;;16.70;44.20;15.30;96392.00;;;;5031672;28;20565;-85
2022/03/03 10:29:17;;;;;;;9.10;7.10;;;16.90;44.10;15.50;96384.00;;;;5036002;28;20217;-85
2022/03/03 10:31:51;;;;;;;9.43;7.17;;;17.10;43.80;15.60;96383.00;;;;5029008;28;20201;-85
2022/03/03 10:34:20;;;;;;;8.27;7.43;;;17.30;43.90;15.80;96384.00;;;;5024824;28;20276;-85
2022/03/03 10:37:02;;;;;;;8.07;7.00;;;17.50;43.60;15.90;96378.00;;;;5029948;28;20233;-84
2022/03/03 10:39:40;;;;;;;8.47;6.57;;;17.70;42.70;16.00;96378.00;;;;5033146;28;20213;-85
2022/03/03 10:42:14;;;;;;;7.27;6.57;;;17.90;41.50;16.20;96380.00;;;;5031951;28;20285;-84
2022/03/03 10:44:42;;;;;;;8.60;6.37;;;18.20;41.70;16.20;96374.00;;;;5032254;28;20751;-84
2022/03/03 10:47:12;;;;;;;9.63;7.10;;;18.10;41.70;16.30;96369.00;;;;5031720;28;20221;-86
2022/03/03 10:49:42;;;;;;;7.27;6.53;;;18.20;40.80;16.40;96379.00;;;;5032899;28;20202;-85
2022/03/03 10:52:15;;;;;;;7.00;6.27;;;18.30;40.70;16.50;96367.00;;;;5035667;28;20197;-86
2022/03/03 10:54:57;;;;;;;6.57;5.73;;;18.40;41.00;16.60;96379.00;;;;5053291;28;20246;-85
2022/03/03 10:57:34;;;;;;;6.37;5.77;;;18.40;39.90;16.60;96366.00;;;;5053553;28;20212;-85
2022/03/03 11:00:06;;;;;;;5.37;4.80;;;18.40;38.60;16.60;96369.00;;;;5027672;28;20727;-86
2022/03/03 11:02:37;;;;;;;6.27;5.67;;;18.30;38.50;16.60;96364.00;;;;5032589;28;20628;-85
2022/03/03 11:05:06;;;;;;;6.83;5.47;;;18.10;38.00;16.50;96364.00;;;;5032580;28;20287;-86
2022/03/03 11:07:35;;;;;;;5.77;5.20;;;17.90;37.20;16.40;96366.00;;;;5031026;28;20763;-87
2022/03/03 11:10:04;;;;;;;5.73;4.93;;;17.60;37.00;16.20;96365.00;;;;5032152;28;20209;-86
2022/03/03 11:12:32;;;;;;;8.37;6.00;;;17.30;37.40;16.00;96369.00;;;;5033507;28;20611;-86
2022/03/03 11:15:01;;;;;;;5.67;5.07;;;17.00;37.40;15.80;96364.00;;;;5030484;28;20201;-86